Terminal Aerodrome Forecast
Issued by NWS

Home | Current Version | Previous Version | Text Only | Print | Product List | Glossary Off
Versions: 1 2 3 4 5 6 7 8 9 10 11 12 13 14 15 16 17 18 19 20 21 22 23 24 25 26 27 28 29 30 31 32 33 34 35 36 37 38

000
FTUS43 KGRB 290500
TAFRHI
TAF
KRHI 290524Z 2906/3006 15006KT P6SM VCSH SCT012 OVC035
      TEMPO 2906/2910 5SM -RA BR BKN010
     FM291000 12005KT 5SM -SHRA BR OVC012
     FM291500 17007KT 4SM -SHRA BR OVC018
      TEMPO 2916/2920 3SM SHRA OVC015
     FM292100 19008KT 5SM -SHRA SCT015 OVC028
     FM300200 21004KT 4SM -SHRA BR OVC012=

USA.gov is the U.S. government's official web portal to all federal, state and local government web resources and services.